createdAt,value
2023-01-05T00:03:37.957Z,59.6
2023-01-05T00:09:22.137Z,59.1
2023-01-05T00:14:57.530Z,58.8
2023-01-05T00:20:48.534Z,58.8
2023-01-05T00:26:26.481Z,59.4
2023-01-05T00:32:02.982Z,60.7
2023-01-05T00:37:39.946Z,60.9
2023-01-05T00:43:15.657Z,60.7
2023-01-05T00:48:50.554Z,60.7
2023-01-05T00:54:26.917Z,60.5
2023-01-05T01:00:02.922Z,60.4
2023-01-05T01:05:38.125Z,60.9
2023-01-05T01:11:19.227Z,61
2023-01-05T01:17:06.436Z,61.5
2023-01-05T01:22:51.573Z,61.4
2023-01-05T01:28:26.615Z,60.9
2023-01-05T01:34:09.589Z,61.1
2023-01-05T01:39:48.157Z,62.8
2023-01-05T01:45:27.032Z,63
2023-01-05T01:51:08.578Z,62.7
2023-01-05T01:56:44.914Z,61.4
2023-01-05T02:02:21.864Z,61
2023-01-05T02:07:58.705Z,60.7
2023-01-05T02:13:33.790Z,60.7
2023-01-05T02:19:30.875Z,60.4
2023-01-05T02:25:23.133Z,60.1
2023-01-05T02:31:23.371Z,60
2023-01-05T02:37:14.848Z,59.9
2023-01-05T02:42:52.646Z,60.3
2023-01-05T02:48:28.399Z,60.8
2023-01-05T02:54:24.778Z,62.4
2023-01-05T02:59:59.919Z,62.2
2023-01-05T03:05:43.564Z,62.6
2023-01-05T03:11:18.488Z,62.2
2023-01-05T03:16:55.135Z,62.7
2023-01-05T03:22:30.705Z,63.8
2023-01-05T03:28:05.841Z,65
2023-01-05T03:33:41.252Z,65.6
2023-01-05T03:39:17.633Z,65.7
2023-01-05T03:45:05.085Z,64.5
2023-01-05T03:50:46.388Z,63.2
2023-01-05T03:56:44.907Z,63.9
2023-01-05T04:02:29.630Z,63.4
2023-01-05T04:08:39.744Z,61.9
2023-01-05T04:14:18.268Z,61.7
2023-01-05T04:19:53.864Z,61.3
2023-01-05T04:25:50.208Z,60.9
2023-01-05T04:31:25.756Z,60.5
2023-01-05T04:37:01.081Z,60.6
2023-01-05T04:42:44.593Z,60.5
2023-01-05T04:48:24.665Z,60.7
2023-01-05T04:54:07.186Z,61.5
2023-01-05T04:59:46.538Z,62.6
2023-01-05T05:05:28.612Z,63.4
2023-01-05T05:11:09.320Z,64
2023-01-05T05:17:33.868Z,61.7
2023-01-05T05:23:20.671Z,61.2
2023-01-05T05:29:21.779Z,61.3
2023-01-05T05:34:56.849Z,60.3
2023-01-05T05:40:32.698Z,60
2023-01-05T05:46:13.975Z,60.7
2023-01-05T05:51:50.320Z,59.3
2023-01-05T05:57:30.792Z,58.2
2023-01-05T06:03:06.378Z,57.8
2023-01-05T06:08:43.290Z,57.5
2023-01-05T06:15:05.583Z,57.7
2023-01-05T06:20:47.756Z,61.1
2023-01-05T06:26:37.316Z,58.7
2023-01-05T06:32:21.552Z,58
2023-01-05T06:37:56.761Z,59.1
2023-01-05T06:43:43.092Z,62.5
2023-01-05T06:49:18.696Z,61.7
2023-01-05T06:54:53.904Z,60.8
2023-01-05T07:00:47.171Z,61.6
2023-01-05T07:06:23.006Z,61.2
2023-01-05T07:12:04.873Z,60.7
2023-01-05T07:17:40.078Z,61.1
2023-01-05T07:23:15.169Z,62.1
2023-01-05T07:29:00.485Z,62.3
2023-01-05T07:35:22.149Z,61.4
2023-01-05T07:41:10.373Z,60.3
2023-01-05T07:46:45.868Z,63.6
2023-01-05T07:52:49.288Z,63.5
2023-01-05T07:58:30.118Z,63.4
2023-01-05T08:04:14.781Z,66.1
2023-01-05T08:09:57.207Z,64.1
2023-01-05T08:15:32.666Z,67.2
2023-01-05T08:21:08.478Z,65.3
2023-01-05T08:26:43.677Z,69.5
2023-01-05T08:32:20.627Z,67.9
2023-01-05T08:37:56.612Z,71.1
2023-01-05T08:43:33.095Z,67
2023-01-05T08:49:08.165Z,64.3
2023-01-05T08:54:43.673Z,65.5
2023-01-05T09:00:19.358Z,69.1
2023-01-05T09:05:54.919Z,68.1
2023-01-05T09:11:30.412Z,63.9
2023-01-05T09:17:09.079Z,64.9
2023-01-05T09:22:46.553Z,65.6
2023-01-05T09:28:22.053Z,66.4
2023-01-05T09:33:58.025Z,68
2023-01-05T09:39:33.569Z,68.3
2023-01-05T09:45:09.173Z,67
2023-01-05T09:50:46.864Z,64.4
2023-01-05T09:57:09.369Z,64.8
2023-01-05T10:02:47.229Z,61.8
2023-01-05T10:08:23.687Z,61.4
2023-01-05T10:14:00.757Z,61.3
2023-01-05T10:19:36.355Z,64.4
2023-01-05T10:25:12.924Z,64.4
2023-01-05T10:30:48.750Z,61.8
2023-01-05T10:37:14.113Z,53.8
2023-01-05T10:42:51.140Z,52.9
2023-01-05T10:48:27.050Z,54.2
2023-01-05T10:54:03.846Z,52.8
2023-01-05T10:59:40.493Z,53.4
2023-01-05T11:05:16.895Z,53.7
2023-01-05T11:10:55.171Z,55.3
2023-01-05T11:16:31.434Z,54.4
2023-01-05T11:22:06.879Z,55.2
2023-01-05T11:27:42.808Z,55.3
2023-01-05T11:33:26.163Z,55.5
2023-01-05T11:39:01.809Z,55.5
2023-01-05T11:44:38.027Z,57
2023-01-05T11:50:13.432Z,55.2
2023-01-05T11:55:51.076Z,55.9
2023-01-05T12:01:26.911Z,55.6
2023-01-05T12:07:09.147Z,55.1
2023-01-05T12:12:46.067Z,53.7
2023-01-05T12:18:21.598Z,52.7
2023-01-05T12:23:57.616Z,51.7
2023-01-05T12:39:50.402Z,50.3
2023-01-05T12:45:32.416Z,51.4
2023-01-05T12:51:07.850Z,50.8
2023-01-05T12:56:45.122Z,51.7
2023-01-05T13:02:21.436Z,49
2023-01-05T13:07:59.596Z,50.7
2023-01-05T13:13:36.115Z,48.7
2023-01-05T13:19:24.321Z,47.9
2023-01-05T13:24:59.839Z,47.6
2023-01-05T13:30:39.100Z,49.7
2023-01-05T13:36:18.399Z,48.7
2023-01-05T13:41:53.913Z,46.4
2023-01-05T13:47:32.041Z,48.8
2023-01-05T13:59:00.822Z,45.8
2023-01-05T14:04:37.077Z,47.4
2023-01-05T14:10:12.713Z,47.8
2023-01-05T14:15:48.221Z,46.4
2023-01-05T14:21:24.434Z,46.5
2023-01-05T14:27:00.099Z,46.3
2023-01-05T14:32:44.409Z,41.3
2023-01-05T14:38:20.367Z,46.4
2023-01-05T14:43:55.658Z,49.7
2023-01-05T14:49:39.872Z,50.9
2023-01-05T14:55:39.472Z,53
2023-01-05T15:01:17.806Z,54.3
2023-01-05T15:06:53.803Z,54.6
2023-01-05T15:12:38.759Z,57.2
2023-01-05T15:18:14.265Z,56.7
2023-01-05T15:23:50.272Z,58.9
2023-01-05T15:29:26.568Z,58.7
2023-01-05T15:35:03.247Z,59.1
2023-01-05T15:40:38.609Z,58.1
2023-01-05T15:46:15.709Z,60.4
2023-01-05T15:51:51.258Z,60.3
2023-01-05T15:57:26.191Z,60.6
2023-01-05T16:03:03.343Z,60.9
2023-01-05T16:08:38.847Z,62
2023-01-05T16:14:14.673Z,61.2
2023-01-05T16:19:50.691Z,62
2023-01-05T16:25:27.843Z,62.4
2023-01-05T16:31:03.063Z,62.1
2023-01-05T16:36:39.561Z,62.8
2023-01-05T16:42:16.497Z,62.7
2023-01-05T16:47:51.408Z,64
2023-01-05T16:53:27.465Z,63.9
2023-01-05T16:59:03.262Z,64.6
2023-01-05T17:04:38.589Z,64.6
2023-01-05T17:10:14.815Z,65.2
2023-01-05T17:15:50.627Z,65.6
2023-01-05T17:21:26.092Z,65.9
2023-01-05T17:27:02.943Z,65.9
2023-01-05T17:32:39.842Z,67.1
2023-01-05T17:38:15.105Z,67.6
2023-01-05T17:43:51.015Z,64.5
2023-01-05T17:55:03.621Z,63.3
2023-01-05T18:00:39.574Z,63.3
2023-01-05T18:06:20.159Z,63.3
2023-01-05T18:11:56.514Z,63.3
2023-01-05T18:17:32.708Z,63.2
2023-01-05T18:23:47.465Z,63.3
2023-01-05T18:29:28.375Z,63.3
2023-01-05T18:35:20.869Z,63.4
2023-01-05T18:41:06.042Z,63.7
2023-01-05T18:46:41.237Z,63.8
2023-01-05T18:52:17.404Z,63.9
2023-01-05T18:57:53.660Z,64.1
2023-01-05T19:03:29.627Z,64.2
2023-01-05T19:09:06.498Z,64.4
2023-01-05T19:14:48.340Z,64.4
2023-01-05T19:20:24.149Z,64.2
2023-01-05T19:26:01.477Z,64.4
2023-01-05T19:31:47.277Z,64.8
2023-01-05T19:37:24.691Z,65.1
2023-01-05T19:43:01.501Z,65.3
2023-01-05T19:48:37.408Z,65.5
2023-01-05T19:54:17.236Z,65.7
2023-01-05T20:00:14.030Z,65.6
2023-01-05T20:05:52.741Z,65.5
2023-01-05T20:11:31.884Z,65.6
2023-01-05T20:17:07.503Z,65.4
2023-01-05T20:22:43.013Z,66.2
2023-01-05T20:28:33.292Z,66.5
2023-01-05T20:34:09.247Z,66.4
2023-01-05T20:39:44.810Z,66.2
2023-01-05T20:45:20.731Z,66
2023-01-05T20:51:18.679Z,66
2023-01-05T20:56:55.575Z,66
2023-01-05T21:03:42.230Z,65.9
2023-01-05T21:09:18.803Z,66
2023-01-05T21:15:02.081Z,66.3
2023-01-05T21:20:37.053Z,66.3
2023-01-05T21:26:31.958Z,66.5
2023-01-05T21:32:08.065Z,66.7
2023-01-05T21:37:43.363Z,67
2023-01-05T21:43:28.792Z,67
2023-01-05T21:49:04.975Z,66.9
2023-01-05T21:54:40.200Z,66.9
2023-01-05T22:00:16.106Z,67.3
2023-01-05T22:05:53.765Z,67.4
2023-01-05T22:11:40.393Z,67.6
2023-01-05T22:17:16.051Z,66.9
2023-01-05T22:23:12.736Z,67.3
2023-01-05T22:28:52.972Z,67.7
2023-01-05T22:34:40.548Z,68.2
2023-01-05T22:40:37.150Z,68.1
2023-01-05T22:46:17.259Z,67.9
2023-01-05T22:51:53.676Z,68.1
2023-01-05T22:57:29.499Z,68.8
2023-01-05T23:03:29.747Z,68.8
2023-01-05T23:09:08.033Z,69.1
2023-01-05T23:14:44.114Z,68.9
2023-01-05T23:20:41.570Z,68
2023-01-05T23:26:19.918Z,68.2
2023-01-05T23:31:59.178Z,68.5
2023-01-05T23:37:34.115Z,69.2
2023-01-05T23:43:31.284Z,69.1
2023-01-05T23:49:56.434Z,68.6
2023-01-05T23:55:29.052Z,68.9
